createdAt,value
2023-04-05T00:01:19.282Z,21.80
2023-04-05T00:03:48.139Z,21.80
2023-04-05T00:06:16.762Z,21.80
2023-04-05T00:08:50.267Z,21.80
2023-04-05T00:11:20.994Z,21.80
2023-04-05T00:13:49.347Z,21.80
2023-04-05T00:16:17.880Z,21.80
2023-04-05T00:18:50.016Z,21.80
2023-04-05T00:21:18.564Z,21.80
2023-04-05T00:23:46.681Z,21.80
2023-04-05T00:26:14.808Z,21.80
2023-04-05T00:28:50.341Z,21.80
2023-04-05T00:31:18.924Z,21.70
2023-04-05T00:33:47.307Z,21.80
2023-04-05T00:36:16.698Z,21.70
2023-04-05T00:38:46.329Z,21.70
2023-04-05T00:41:15.401Z,21.70
2023-04-05T00:43:43.742Z,21.70
2023-04-05T00:46:13.296Z,21.70
2023-04-05T00:48:41.771Z,21.70
2023-04-05T00:51:12.142Z,21.70
2023-04-05T00:53:43.055Z,21.70
2023-04-05T00:56:13.661Z,21.70
2023-04-05T00:58:42.632Z,21.70
2023-04-05T01:01:17.816Z,21.70
2023-04-05T01:03:52.047Z,21.70
2023-04-05T01:06:36.467Z,21.70
2023-04-05T01:09:10.070Z,21.70
2023-04-05T01:11:41.194Z,21.70
2023-04-05T01:14:09.320Z,21.70
2023-04-05T01:16:38.811Z,21.70
2023-04-05T01:19:09.977Z,21.70
2023-04-05T01:22:17.411Z,21.70
2023-04-05T01:25:06.814Z,21.60
2023-04-05T01:27:57.154Z,21.60
2023-04-05T01:30:30.906Z,21.60
2023-04-05T01:33:09.306Z,21.60
2023-04-05T01:35:44.972Z,21.60
2023-04-05T01:38:18.642Z,21.60
2023-04-05T01:40:47.251Z,21.60
2023-04-05T01:43:15.608Z,21.60
2023-04-05T01:45:46.574Z,21.60
2023-04-05T01:48:14.847Z,21.60
2023-04-05T01:50:43.375Z,21.60
2023-04-05T01:53:11.808Z,21.60
2023-04-05T01:55:39.943Z,21.60
2023-04-05T01:58:10.107Z,21.60
2023-04-05T02:00:39.312Z,21.60
2023-04-05T02:03:09.087Z,21.60
2023-04-05T02:05:37.436Z,21.60
2023-04-05T02:08:05.590Z,21.60
2023-04-05T02:10:33.705Z,21.60
2023-04-05T02:13:02.075Z,21.60
2023-04-05T02:15:32.685Z,21.60
2023-04-05T02:18:02.254Z,21.50
2023-04-05T02:20:32.992Z,21.60
2023-04-05T02:23:01.989Z,21.50
2023-04-05T02:25:30.346Z,21.50
2023-04-05T02:27:58.995Z,21.50
2023-04-05T02:30:28.983Z,21.50
2023-04-05T02:32:57.282Z,21.50
2023-04-05T02:35:25.638Z,21.50
2023-04-05T02:37:56.709Z,21.50
2023-04-05T02:40:25.321Z,21.50
2023-04-05T02:42:53.426Z,21.50
2023-04-05T02:45:21.520Z,21.50
2023-04-05T02:47:50.420Z,21.50
2023-04-05T02:50:20.504Z,21.50
2023-04-05T02:52:48.996Z,21.50
2023-04-05T02:55:19.415Z,21.50
2023-04-05T02:57:48.875Z,21.50
2023-04-05T03:00:27.894Z,21.50
2023-04-05T03:02:57.882Z,21.50
2023-04-05T03:05:26.129Z,21.50
2023-04-05T03:07:54.902Z,21.40
2023-04-05T03:10:34.926Z,21.40
2023-04-05T03:13:09.149Z,21.40
2023-04-05T03:15:37.357Z,21.40
2023-04-05T03:18:11.577Z,21.40
2023-04-05T03:20:41.504Z,21.40
2023-04-05T03:23:17.307Z,21.40
2023-04-05T03:25:47.975Z,21.40
2023-04-05T03:28:18.370Z,21.40
2023-04-05T03:30:49.734Z,21.40
2023-04-05T03:33:21.667Z,21.40
2023-04-05T03:35:52.103Z,21.40
2023-04-05T03:38:20.884Z,21.40
2023-04-05T03:41:10.702Z,21.40
2023-04-05T03:43:38.999Z,21.40
2023-04-05T03:46:07.543Z,21.40
2023-04-05T03:48:35.630Z,21.40
2023-04-05T03:51:04.317Z,21.40
2023-04-05T03:53:32.706Z,21.40
2023-04-05T03:56:01.605Z,21.40
2023-04-05T03:58:43.584Z,21.40
2023-04-05T04:01:12.971Z,21.30
2023-04-05T04:03:41.458Z,21.40
2023-04-05T04:06:09.814Z,21.40
2023-04-05T04:08:37.992Z,21.40
2023-04-05T04:11:06.522Z,21.30
2023-04-05T04:13:40.316Z,21.30
2023-04-05T04:16:21.180Z,21.30
2023-04-05T04:19:12.010Z,21.30
2023-04-05T04:22:20.590Z,21.30
2023-04-05T04:25:18.841Z,21.30
2023-04-05T04:28:06.816Z,21.30
2023-04-05T04:30:53.536Z,21.30
2023-04-05T04:33:40.271Z,21.30
2023-04-05T04:36:34.614Z,21.30
2023-04-05T04:39:45.128Z,21.30
2023-04-05T04:42:48.954Z,21.30
2023-04-05T04:45:37.873Z,21.30
2023-04-05T04:48:16.669Z,21.30
2023-04-05T04:51:00.218Z,21.30
2023-04-05T04:53:29.934Z,21.20
2023-04-05T04:55:58.024Z,21.20
2023-04-05T04:58:26.147Z,21.30
2023-04-05T05:01:09.726Z,21.20
2023-04-05T05:03:38.588Z,21.30
2023-04-05T05:06:08.810Z,21.30
2023-04-05T05:08:38.319Z,21.30
2023-04-05T05:11:08.880Z,21.30
2023-04-05T05:13:37.385Z,21.20
2023-04-05T05:16:06.900Z,21.30
2023-04-05T05:18:35.031Z,21.20
2023-04-05T05:21:03.142Z,21.30
2023-04-05T05:23:32.633Z,21.30
2023-04-05T05:26:01.366Z,21.30
2023-04-05T05:28:29.452Z,21.30
2023-04-05T05:30:57.577Z,21.30
2023-04-05T05:33:26.525Z,21.20
2023-04-05T05:35:54.645Z,21.30
2023-04-05T05:38:23.635Z,21.30
2023-04-05T05:40:58.608Z,21.30
2023-04-05T05:43:26.697Z,21.30
2023-04-05T05:45:54.858Z,21.30
2023-04-05T05:48:22.987Z,21.30
2023-04-05T05:50:51.109Z,21.30
2023-04-05T05:53:19.581Z,21.30
2023-04-05T05:55:47.711Z,21.30
2023-04-05T05:58:17.201Z,21.30
2023-04-05T06:00:49.140Z,21.30
2023-04-05T06:03:19.256Z,21.30
2023-04-05T06:05:52.679Z,21.30
2023-04-05T06:08:20.859Z,21.30
2023-04-05T06:10:50.364Z,21.30
2023-04-05T06:13:19.861Z,21.30
2023-04-05T06:15:49.052Z,21.30
2023-04-05T06:18:17.820Z,21.30
2023-04-05T06:20:46.033Z,21.30
2023-04-05T06:23:14.766Z,21.30
2023-04-05T06:25:44.733Z,21.30
2023-04-05T06:28:12.812Z,21.30
2023-04-05T06:30:42.653Z,21.30
2023-04-05T06:33:10.884Z,21.30
2023-04-05T06:35:39.010Z,21.40
2023-04-05T06:38:07.176Z,21.40
2023-04-05T06:40:35.343Z,21.40
2023-04-05T06:43:03.430Z,21.40
2023-04-05T06:45:33.608Z,21.40
2023-04-05T06:48:03.206Z,21.40
2023-04-05T06:50:31.479Z,21.40
2023-04-05T06:52:59.564Z,21.40
2023-04-05T06:55:27.811Z,21.40
2023-04-05T06:57:55.942Z,21.40
2023-04-05T07:00:24.321Z,21.40
2023-04-05T07:02:52.529Z,21.40
2023-04-05T07:05:22.076Z,21.50
2023-04-05T07:07:50.151Z,21.40
2023-04-05T07:10:18.284Z,21.50
2023-04-05T07:12:47.114Z,21.50
2023-04-05T07:15:15.381Z,21.50
2023-04-05T07:17:43.542Z,21.50
2023-04-05T07:20:14.412Z,21.50
2023-04-05T07:22:43.896Z,21.50
2023-04-05T07:25:14.839Z,21.50
2023-04-05T07:27:42.975Z,21.50
2023-04-05T07:30:15.202Z,21.50
2023-04-05T07:32:43.437Z,21.50
2023-04-05T07:35:11.825Z,21.60
2023-04-05T07:37:39.920Z,21.50
2023-04-05T07:40:11.378Z,21.50
2023-04-05T07:42:40.839Z,21.50
2023-04-05T07:45:09.880Z,21.60
2023-04-05T07:47:38.051Z,21.60
2023-04-05T07:50:09.643Z,21.60
2023-04-05T07:52:37.832Z,21.60
2023-04-05T07:55:07.322Z,21.60
2023-04-05T07:57:37.447Z,21.60
2023-04-05T08:00:10.707Z,21.60
2023-04-05T08:02:41.423Z,21.60
2023-04-05T08:05:09.946Z,21.60
2023-04-05T08:07:38.119Z,21.60
2023-04-05T08:10:06.908Z,21.60
2023-04-05T08:12:38.767Z,21.60
2023-04-05T08:15:08.158Z,21.60
2023-04-05T08:17:36.266Z,21.60
2023-04-05T08:20:04.902Z,21.60
2023-04-05T08:22:32.966Z,21.60
2023-04-05T08:25:01.188Z,21.60
2023-04-05T08:27:29.507Z,21.60
2023-04-05T08:29:59.030Z,21.60
2023-04-05T08:32:27.188Z,21.60
2023-04-05T08:34:55.334Z,21.60
2023-04-05T08:37:23.446Z,21.60
2023-04-05T08:39:51.748Z,21.70
2023-04-05T08:42:24.881Z,21.70
2023-04-05T08:44:54.058Z,21.70
2023-04-05T08:47:25.099Z,21.70
2023-04-05T08:49:53.784Z,21.70
2023-04-05T08:52:22.020Z,21.70
2023-04-05T08:54:51.003Z,21.70
2023-04-05T08:57:23.794Z,21.70
2023-04-05T08:59:52.925Z,21.70
2023-04-05T09:02:26.026Z,21.70
2023-04-05T09:04:54.846Z,21.70
2023-04-05T09:07:24.475Z,21.70
2023-04-05T09:09:54.755Z,21.70
2023-04-05T09:12:24.160Z,21.70
2023-04-05T09:14:52.962Z,21.70
2023-04-05T09:17:21.192Z,21.70
2023-04-05T09:19:50.977Z,21.70
2023-04-05T09:22:19.584Z,21.80
2023-04-05T09:24:48.219Z,21.80
2023-04-05T09:27:21.173Z,21.80
2023-04-05T09:29:56.760Z,21.80
2023-04-05T09:32:29.416Z,21.80
2023-04-05T09:35:04.050Z,21.80
2023-04-05T09:37:34.220Z,21.80
2023-04-05T09:40:05.161Z,21.80
2023-04-05T09:42:45.826Z,21.90
2023-04-05T09:45:14.362Z,21.90
2023-04-05T09:47:57.301Z,21.90
2023-04-05T09:50:27.226Z,21.90
2023-04-05T09:53:08.352Z,21.90
2023-04-05T09:55:36.830Z,22.00
2023-04-05T09:58:05.084Z,22.00
2023-04-05T10:00:33.826Z,22.00
2023-04-05T10:03:02.053Z,22.00
2023-04-05T10:05:32.588Z,22.00
2023-04-05T10:08:01.173Z,22.10
2023-04-05T10:10:30.287Z,22.10
2023-04-05T10:12:58.716Z,22.10
2023-04-05T10:15:28.001Z,22.10
2023-04-05T10:18:09.939Z,22.10
2023-04-05T10:20:42.471Z,22.10
2023-04-05T10:23:17.423Z,22.10
2023-04-05T10:25:53.689Z,22.10
2023-04-05T10:28:32.163Z,22.10
2023-04-05T10:31:09.325Z,22.20
2023-04-05T10:33:42.788Z,22.20
2023-04-05T10:36:18.892Z,22.20
2023-04-05T10:39:00.358Z,22.20
2023-04-05T10:41:31.166Z,22.20
2023-04-05T10:44:01.594Z,22.20
2023-04-05T10:46:33.227Z,22.20
2023-04-05T10:49:12.294Z,22.20
2023-04-05T10:51:43.903Z,22.30
2023-04-05T10:54:13.167Z,22.30
2023-04-05T10:56:41.848Z,22.30
2023-04-05T10:59:11.059Z,22.40
2023-04-05T11:01:40.585Z,22.40
2023-04-05T11:04:13.312Z,22.50
2023-04-05T11:06:43.258Z,22.50
2023-04-05T11:09:15.246Z,22.60
2023-04-05T11:11:45.539Z,22.70
2023-04-05T11:14:20.959Z,22.90
2023-04-05T11:16:53.275Z,23.10
2023-04-05T11:19:21.749Z,23.30
2023-04-05T11:22:02.598Z,23.50
2023-04-05T11:24:51.819Z,23.70
2023-04-05T11:27:26.995Z,24.00
2023-04-05T11:29:55.508Z,24.10
2023-04-05T11:32:24.580Z,24.20
2023-04-05T11:35:13.993Z,24.40
2023-04-05T11:38:10.083Z,24.40
2023-04-05T11:40:40.904Z,24.50
2023-04-05T11:43:11.320Z,24.60
2023-04-05T11:45:40.836Z,24.70
2023-04-05T11:48:10.973Z,24.70
2023-04-05T11:50:42.885Z,24.70
2023-04-05T11:53:16.474Z,24.70
2023-04-05T11:55:46.198Z,24.80
2023-04-05T11:58:18.623Z,24.70
2023-04-05T12:00:47.831Z,24.70
2023-04-05T12:03:16.761Z,24.70
2023-04-05T12:05:52.184Z,24.70
2023-04-05T12:08:22.748Z,24.70
2023-04-05T12:11:01.389Z,24.80
2023-04-05T12:13:30.417Z,24.80
2023-04-05T12:16:02.212Z,24.80
2023-04-05T12:18:32.540Z,24.90
2023-04-05T12:21:01.321Z,24.90
2023-04-05T12:23:30.907Z,25.00
2023-04-05T12:25:59.147Z,25.00
2023-04-05T12:28:27.338Z,25.00
2023-04-05T12:30:57.562Z,25.00
2023-04-05T12:33:29.422Z,25.00
2023-04-05T12:35:57.755Z,25.10
2023-04-05T12:38:28.327Z,25.10
2023-04-05T12:41:01.104Z,25.10
2023-04-05T12:43:41.977Z,25.10
2023-04-05T12:46:13.159Z,25.10
2023-04-05T12:48:43.472Z,25.10
2023-04-05T12:51:16.833Z,25.10
2023-04-05T12:53:49.292Z,25.00
2023-04-05T12:56:18.809Z,25.00
2023-04-05T12:58:51.080Z,24.90
2023-04-05T13:01:19.392Z,24.90
2023-04-05T13:03:49.958Z,24.90
2023-04-05T13:06:18.294Z,24.90
2023-04-05T13:08:46.515Z,24.90
2023-04-05T13:11:14.626Z,25.00
2023-04-05T13:13:44.123Z,25.00
2023-04-05T13:16:12.310Z,24.90
2023-04-05T13:18:40.499Z,24.90
2023-04-05T13:21:09.964Z,24.90
2023-04-05T13:23:39.297Z,24.80
2023-04-05T13:26:08.251Z,24.80
2023-04-05T13:28:36.715Z,24.70
2023-04-05T13:31:08.296Z,24.60
2023-04-05T13:33:36.524Z,24.50
2023-04-05T13:36:04.848Z,24.40
2023-04-05T13:38:32.995Z,24.40
2023-04-05T13:41:01.113Z,24.30
2023-04-05T13:43:31.176Z,24.30
2023-04-05T13:46:01.414Z,24.20
2023-04-05T13:48:31.432Z,24.20
2023-04-05T13:50:59.719Z,24.20
2023-04-05T13:53:28.760Z,24.20
2023-04-05T13:55:56.952Z,24.20
2023-04-05T13:58:25.100Z,24.20
2023-04-05T14:00:53.985Z,24.20
2023-04-05T14:03:22.197Z,24.20
2023-04-05T14:05:53.807Z,24.20
2023-04-05T14:08:23.423Z,24.20
2023-04-05T14:10:51.587Z,24.20
2023-04-05T14:13:19.698Z,24.20
2023-04-05T14:15:47.999Z,24.30
2023-04-05T14:18:16.279Z,24.20
2023-04-05T14:20:44.566Z,24.30
2023-04-05T14:23:14.644Z,24.30
2023-04-05T14:25:42.997Z,24.30
2023-04-05T14:28:11.498Z,24.30
2023-04-05T14:30:40.111Z,24.20
2023-04-05T14:33:08.647Z,24.20
2023-04-05T14:35:36.919Z,24.20
2023-04-05T14:38:05.202Z,24.20
2023-04-05T14:40:34.985Z,24.20
2023-04-05T14:43:03.702Z,24.10
2023-04-05T14:45:32.555Z,24.00
2023-04-05T14:48:01.062Z,24.00
2023-04-05T14:50:32.273Z,23.90
2023-04-05T14:53:00.753Z,23.90
2023-04-05T14:55:29.217Z,23.80
2023-04-05T14:57:58.856Z,23.80
2023-04-05T15:00:27.154Z,23.80
2023-04-05T15:02:55.680Z,23.80
2023-04-05T15:05:24.050Z,23.80
2023-04-05T15:07:52.257Z,23.80
2023-04-05T15:10:20.683Z,23.80
2023-04-05T15:12:50.087Z,23.80
2023-04-05T15:15:20.181Z,23.80
2023-04-05T15:17:48.501Z,23.80
2023-04-05T15:20:16.942Z,23.70
2023-04-05T15:22:45.363Z,23.70
2023-04-05T15:25:13.843Z,23.70
2023-04-05T15:27:42.080Z,23.70
2023-04-05T15:30:11.188Z,23.70
2023-04-05T15:32:41.094Z,23.70
2023-04-05T15:35:10.053Z,23.70
2023-04-05T15:37:39.221Z,23.70
2023-04-05T15:40:08.704Z,23.80
2023-04-05T15:42:36.951Z,23.80
2023-04-05T15:45:06.060Z,23.80
2023-04-05T15:47:34.332Z,23.80
2023-04-05T15:50:04.229Z,23.80
2023-04-05T15:52:32.564Z,23.80
2023-04-05T15:55:00.825Z,23.80
2023-04-05T15:57:29.105Z,23.80
2023-04-05T15:59:57.451Z,23.80
2023-04-05T16:02:26.334Z,23.80
2023-04-05T16:04:54.797Z,23.80
2023-04-05T16:07:24.563Z,23.90
2023-04-05T16:09:52.862Z,23.80
2023-04-05T16:12:21.198Z,23.90
2023-04-05T16:14:49.547Z,23.90
2023-04-05T16:17:18.091Z,23.90
2023-04-05T16:19:46.420Z,23.90
2023-04-05T16:22:14.789Z,23.90
2023-04-05T16:24:44.692Z,23.90
2023-04-05T16:27:13.556Z,23.90
2023-04-05T16:29:41.889Z,23.90
2023-04-05T16:32:10.568Z,23.90
2023-04-05T16:34:38.852Z,23.90
2023-04-05T16:37:07.089Z,23.90
2023-04-05T16:39:35.316Z,23.90
2023-04-05T16:42:05.366Z,23.90
2023-04-05T16:44:33.578Z,23.90
2023-04-05T16:47:01.821Z,24.00
2023-04-05T16:49:30.095Z,24.00
2023-04-05T16:51:58.350Z,23.90
2023-04-05T16:54:26.630Z,23.90
2023-04-05T16:56:54.866Z,23.90
2023-04-05T16:59:24.617Z,24.00
2023-04-05T17:01:53.091Z,23.90
2023-04-05T17:04:21.395Z,23.90
2023-04-05T17:06:49.897Z,23.90
2023-04-05T17:09:18.115Z,23.90
2023-04-05T17:11:47.226Z,23.90
2023-04-05T17:14:16.036Z,23.90
2023-04-05T17:16:45.797Z,23.90
2023-04-05T17:19:14.057Z,23.90
2023-04-05T17:21:45.062Z,23.90
2023-04-05T17:24:13.314Z,23.90
2023-04-05T17:26:41.618Z,23.90
2023-04-05T17:29:09.893Z,23.80
2023-04-05T17:31:38.151Z,23.80
2023-04-05T17:34:08.563Z,23.70
2023-04-05T17:36:37.476Z,23.70
2023-04-05T17:39:06.011Z,23.70
2023-04-05T17:41:34.447Z,23.70
2023-04-05T17:44:02.722Z,23.60
2023-04-05T17:46:42.762Z,23.60
2023-04-05T17:49:16.311Z,23.60
2023-04-05T17:51:44.632Z,23.50
2023-04-05T17:54:15.625Z,23.50
2023-04-05T17:56:43.929Z,23.50
2023-04-05T17:59:12.238Z,23.40
2023-04-05T18:01:40.755Z,23.40
2023-04-05T18:04:11.841Z,23.40
2023-04-05T18:06:42.191Z,23.30
2023-04-05T18:09:10.427Z,23.30
2023-04-05T18:11:38.719Z,23.30
2023-04-05T18:14:07.102Z,23.30
2023-04-05T18:16:35.569Z,23.20
2023-04-05T18:19:03.983Z,23.20
2023-04-05T18:21:32.409Z,23.20
2023-04-05T18:24:01.999Z,23.20
2023-04-05T18:26:31.200Z,23.10
2023-04-05T18:29:00.227Z,23.10
2023-04-05T18:31:29.404Z,23.10
2023-04-05T18:33:57.703Z,23.10
2023-04-05T18:36:26.708Z,23.10
2023-04-05T18:38:55.727Z,23.10
2023-04-05T18:41:25.428Z,23.10
2023-04-05T18:43:54.518Z,23.00
2023-04-05T18:46:24.203Z,23.00
2023-04-05T18:48:54.509Z,23.00
2023-04-05T18:51:22.915Z,23.00
2023-04-05T18:53:51.265Z,23.00
2023-04-05T18:56:19.616Z,22.90
2023-04-05T18:58:49.903Z,22.90
2023-04-05T19:01:19.932Z,22.90
2023-04-05T19:03:49.028Z,22.90
2023-04-05T19:06:17.725Z,22.90
2023-04-05T19:08:47.972Z,22.90
2023-04-05T19:11:18.499Z,22.90
2023-04-05T19:13:48.188Z,22.90
2023-04-05T19:16:17.475Z,22.90
2023-04-05T19:18:45.984Z,22.90
2023-04-05T19:21:14.370Z,22.80
2023-04-05T19:23:42.921Z,22.80
2023-04-05T19:26:11.163Z,22.80
2023-04-05T19:28:39.453Z,22.80
2023-04-05T19:31:11.223Z,22.80
2023-04-05T19:33:39.522Z,22.80
2023-04-05T19:36:07.961Z,22.80
2023-04-05T19:38:36.297Z,22.80
2023-04-05T19:41:04.542Z,22.80
2023-04-05T19:43:33.474Z,22.80
2023-04-05T19:46:02.161Z,22.70
2023-04-05T19:48:38.410Z,22.70
2023-04-05T19:51:08.149Z,22.70
2023-04-05T19:53:54.052Z,22.70
2023-04-05T19:56:23.726Z,22.70
2023-04-05T19:58:57.136Z,22.70
2023-04-05T20:01:33.592Z,22.70
2023-04-05T20:04:08.741Z,22.70
2023-04-05T20:06:37.170Z,22.70
2023-04-05T20:09:07.762Z,22.70
2023-04-05T20:11:36.818Z,22.70
2023-04-05T20:14:06.814Z,22.60
2023-04-05T20:16:36.889Z,22.60
2023-04-05T20:19:08.972Z,22.60
2023-04-05T20:21:38.759Z,22.60
2023-04-05T20:24:11.696Z,22.60
2023-04-05T20:26:42.078Z,22.60
2023-04-05T20:29:12.001Z,22.60
2023-04-05T20:31:40.446Z,22.60
2023-04-05T20:34:12.681Z,22.60
2023-04-05T20:36:49.091Z,22.60
2023-04-05T20:39:17.583Z,22.60
2023-04-05T20:41:46.316Z,22.60
2023-04-05T20:44:14.604Z,22.50
2023-04-05T20:46:43.408Z,22.50
2023-04-05T20:49:13.256Z,22.50
2023-04-05T20:51:43.041Z,22.50
2023-04-05T20:54:11.567Z,22.50
2023-04-05T20:56:39.820Z,22.50
2023-04-05T20:59:08.547Z,22.50
2023-04-05T21:01:37.959Z,22.50
2023-04-05T21:04:06.488Z,22.50
2023-04-05T21:06:37.494Z,22.50
2023-04-05T21:09:06.281Z,22.50
2023-04-05T21:11:34.765Z,22.50
2023-04-05T21:14:03.136Z,22.50
2023-04-05T21:16:31.636Z,22.50
2023-04-05T21:18:59.908Z,22.40
2023-04-05T21:21:28.132Z,22.40
2023-04-05T21:23:57.761Z,22.40
2023-04-05T21:26:28.372Z,22.40
2023-04-05T21:28:56.685Z,22.40
2023-04-05T21:31:24.959Z,22.40
2023-04-05T21:33:53.229Z,22.40
2023-04-05T21:36:21.456Z,22.40
2023-04-05T21:38:49.687Z,22.40
2023-04-05T21:41:19.322Z,22.40
2023-04-05T21:43:47.520Z,22.40
2023-04-05T21:46:15.771Z,22.40
2023-04-05T21:48:44.001Z,22.40
2023-04-05T21:51:12.260Z,22.40
2023-04-05T21:53:40.554Z,22.40
2023-04-05T21:56:08.854Z,22.40
2023-04-05T21:58:38.448Z,22.40
2023-04-05T22:01:06.738Z,22.30
2023-04-05T22:03:35.037Z,22.30
2023-04-05T22:06:03.416Z,22.30
2023-04-05T22:08:34.034Z,22.30
2023-04-05T22:11:02.420Z,22.30
2023-04-05T22:13:30.616Z,22.30
2023-04-05T22:16:00.293Z,22.30
2023-04-05T22:18:29.099Z,22.30
2023-04-05T22:20:57.355Z,22.30
2023-04-05T22:23:25.578Z,22.30
2023-04-05T22:25:53.956Z,22.30
2023-04-05T22:28:22.984Z,22.30
2023-04-05T22:30:51.292Z,22.30
2023-04-05T22:33:20.981Z,22.30
2023-04-05T22:35:49.305Z,22.20
2023-04-05T22:38:17.577Z,22.20
2023-04-05T22:40:46.469Z,22.20
2023-04-05T22:43:14.727Z,22.20
2023-04-05T22:45:42.992Z,22.20
2023-04-05T22:48:11.387Z,22.20
2023-04-05T22:50:41.116Z,22.20
2023-04-05T22:53:09.351Z,22.20
2023-04-05T22:55:39.919Z,22.20
2023-04-05T22:58:09.268Z,22.20
2023-04-05T23:00:38.174Z,22.20
2023-04-05T23:03:06.790Z,22.20
2023-04-05T23:05:36.717Z,22.20
2023-04-05T23:08:06.530Z,22.20
2023-04-05T23:10:34.782Z,22.10
2023-04-05T23:13:02.998Z,22.10
2023-04-05T23:15:31.290Z,22.10
2023-04-05T23:17:59.563Z,22.10
2023-04-05T23:20:27.798Z,22.10
2023-04-05T23:22:56.320Z,22.10
2023-04-05T23:25:25.988Z,22.10
2023-04-05T23:27:54.425Z,22.10
2023-04-05T23:30:22.697Z,22.10
2023-04-05T23:32:51.120Z,22.10
2023-04-05T23:35:19.375Z,22.10
2023-04-05T23:37:47.595Z,22.10
2023-04-05T23:40:16.160Z,22.10
2023-04-05T23:42:45.748Z,22.10
2023-04-05T23:45:13.963Z,22.10
2023-04-05T23:47:42.199Z,22.10
2023-04-05T23:50:11.517Z,22.10
2023-04-05T23:52:39.736Z,22.10
2023-04-05T23:55:08.819Z,22.10
2023-04-05T23:57:36.997Z,22.10
